sensor_id;sensor_type;location;lat;lon;timestamp;temperature;humidity
13794;DHT22;31160;49.500;7.772;2023-04-03T00:00:52;4.50;99.90
13794;DHT22;31160;49.500;7.772;2023-04-03T00:03:19;4.40;99.90
13794;DHT22;31160;49.500;7.772;2023-04-03T00:05:46;4.20;99.90
13794;DHT22;31160;49.500;7.772;2023-04-03T00:08:13;4.20;99.90
13794;DHT22;31160;49.500;7.772;2023-04-03T00:10:41;4.00;99.90
13794;DHT22;31160;49.500;7.772;2023-04-03T00:13:08;4.10;99.90
13794;DHT22;31160;49.500;7.772;2023-04-03T00:15:36;3.90;99.90
13794;DHT22;31160;49.500;7.772;2023-04-03T00:18:03;3.80;99.90
13794;DHT22;31160;49.500;7.772;2023-04-03T00:20:31;3.80;99.90
13794;DHT22;31160;49.500;7.772;2023-04-03T00:22:58;3.70;99.90
13794;DHT22;31160;49.500;7.772;2023-04-03T00:25:25;3.70;99.90
13794;DHT22;31160;49.500;7.772;2023-04-03T00:27:52;3.70;99.90
13794;DHT22;31160;49.500;7.772;2023-04-03T00:30:20;3.70;99.90
13794;DHT22;31160;49.500;7.772;2023-04-03T00:32:49;3.50;99.90
13794;DHT22;31160;49.500;7.772;2023-04-03T00:35:16;3.50;99.90
13794;DHT22;31160;49.500;7.772;2023-04-03T00:37:44;3.60;99.90
13794;DHT22;31160;49.500;7.772;2023-04-03T00:40:12;3.60;99.90
13794;DHT22;31160;49.500;7.772;2023-04-03T00:42:41;3.60;99.90
13794;DHT22;31160;49.500;7.772;2023-04-03T00:47:38;3.60;99.90
13794;DHT22;31160;49.500;7.772;2023-04-03T00:50:06;3.60;99.90
13794;DHT22;31160;49.500;7.772;2023-04-03T00:52:33;3.60;99.90
13794;DHT22;31160;49.500;7.772;2023-04-03T00:55:05;3.70;99.90
13794;DHT22;31160;49.500;7.772;2023-04-03T00:57:32;3.50;99.90
13794;DHT22;31160;49.500;7.772;2023-04-03T01:00:05;3.50;99.90
13794;DHT22;31160;49.500;7.772;2023-04-03T01:02:32;3.30;99.90
13794;DHT22;31160;49.500;7.772;2023-04-03T01:04:59;3.40;99.90
13794;DHT22;31160;49.500;7.772;2023-04-03T01:07:29;3.40;99.90
13794;DHT22;31160;49.500;7.772;2023-04-03T01:09:59;3.40;99.90
13794;DHT22;31160;49.500;7.772;2023-04-03T01:12:30;3.30;99.90
13794;DHT22;31160;49.500;7.772;2023-04-03T01:15:09;3.30;99.90
13794;DHT22;31160;49.500;7.772;2023-04-03T01:25:14;3.20;99.90
13794;DHT22;31160;49.500;7.772;2023-04-03T01:27:41;3.00;99.90
13794;DHT22;31160;49.500;7.772;2023-04-03T01:30:08;3.00;99.90
13794;DHT22;31160;49.500;7.772;2023-04-03T01:32:35;2.90;99.90
13794;DHT22;31160;49.500;7.772;2023-04-03T01:35:02;2.90;99.90
13794;DHT22;31160;49.500;7.772;2023-04-03T01:37:29;2.90;99.90
13794;DHT22;31160;49.500;7.772;2023-04-03T01:39:56;2.80;99.90
13794;DHT22;31160;49.500;7.772;2023-04-03T01:42:23;2.70;99.90
13794;DHT22;31160;49.500;7.772;2023-04-03T01:44:49;2.80;99.90
13794;DHT22;31160;49.500;7.772;2023-04-03T01:47:16;2.80;99.90
13794;DHT22;31160;49.500;7.772;2023-04-03T01:49:43;2.80;99.90
13794;DHT22;31160;49.500;7.772;2023-04-03T01:52:10;2.70;99.90
13794;DHT22;31160;49.500;7.772;2023-04-03T01:54:37;2.80;99.90
13794;DHT22;31160;49.500;7.772;2023-04-03T01:57:04;2.80;99.90
13794;DHT22;31160;49.500;7.772;2023-04-03T01:59:31;2.70;99.90
13794;DHT22;31160;49.500;7.772;2023-04-03T02:01:58;2.70;99.90
13794;DHT22;31160;49.500;7.772;2023-04-03T02:04:25;2.70;99.90
13794;DHT22;31160;49.500;7.772;2023-04-03T02:06:52;2.70;99.90
13794;DHT22;31160;49.500;7.772;2023-04-03T02:09:19;2.70;99.90
13794;DHT22;31160;49.500;7.772;2023-04-03T02:11:46;2.70;99.90
13794;DHT22;31160;49.500;7.772;2023-04-03T02:14:13;2.60;99.90
13794;DHT22;31160;49.500;7.772;2023-04-03T02:16:40;2.70;99.90
13794;DHT22;31160;49.500;7.772;2023-04-03T02:19:07;2.70;99.90
13794;DHT22;31160;49.500;7.772;2023-04-03T02:21:34;2.60;99.90
13794;DHT22;31160;49.500;7.772;2023-04-03T02:24:01;2.70;99.90
13794;DHT22;31160;49.500;7.772;2023-04-03T02:26:28;2.60;99.90
13794;DHT22;31160;49.500;7.772;2023-04-03T02:28:54;2.60;99.90
13794;DHT22;31160;49.500;7.772;2023-04-03T02:31:21;2.60;99.90
13794;DHT22;31160;49.500;7.772;2023-04-03T02:33:48;2.50;99.90
13794;DHT22;31160;49.500;7.772;2023-04-03T02:36:16;2.40;99.90
13794;DHT22;31160;49.500;7.772;2023-04-03T02:38:47;2.40;99.90
13794;DHT22;31160;49.500;7.772;2023-04-03T02:41:15;2.40;99.90
13794;DHT22;31160;49.500;7.772;2023-04-03T02:43:42;2.40;99.90
13794;DHT22;31160;49.500;7.772;2023-04-03T02:46:09;2.40;99.90
13794;DHT22;31160;49.500;7.772;2023-04-03T02:48:36;2.40;99.90
13794;DHT22;31160;49.500;7.772;2023-04-03T02:51:03;2.40;99.90
13794;DHT22;31160;49.500;7.772;2023-04-03T02:53:30;2.30;99.90
13794;DHT22;31160;49.500;7.772;2023-04-03T02:56:00;2.20;99.90
13794;DHT22;31160;49.500;7.772;2023-04-03T02:58:27;2.20;99.90
13794;DHT22;31160;49.500;7.772;2023-04-03T03:00:56;2.20;99.90
13794;DHT22;31160;49.500;7.772;2023-04-03T03:03:23;2.20;99.90
13794;DHT22;31160;49.500;7.772;2023-04-03T03:05:50;2.20;99.90
13794;DHT22;31160;49.500;7.772;2023-04-03T03:08:26;2.20;99.90
13794;DHT22;31160;49.500;7.772;2023-04-03T03:10:53;2.20;99.90
13794;DHT22;31160;49.500;7.772;2023-04-03T03:13:20;2.10;99.90
13794;DHT22;31160;49.500;7.772;2023-04-03T03:15:46;2.10;99.90
13794;DHT22;31160;49.500;7.772;2023-04-03T03:18:13;2.20;99.90
13794;DHT22;31160;49.500;7.772;2023-04-03T03:20:40;2.20;99.90
13794;DHT22;31160;49.500;7.772;2023-04-03T03:23:07;2.20;99.90
13794;DHT22;31160;49.500;7.772;2023-04-03T03:25:37;2.20;99.90
13794;DHT22;31160;49.500;7.772;2023-04-03T03:28:04;2.10;99.90
13794;DHT22;31160;49.500;7.772;2023-04-03T03:30:31;2.10;99.90
13794;DHT22;31160;49.500;7.772;2023-04-03T03:32:58;2.10;99.90
13794;DHT22;31160;49.500;7.772;2023-04-03T03:35:24;2.10;99.90
13794;DHT22;31160;49.500;7.772;2023-04-03T03:37:51;2.20;99.90
13794;DHT22;31160;49.500;7.772;2023-04-03T03:40:18;2.20;99.90
13794;DHT22;31160;49.500;7.772;2023-04-03T03:42:45;2.20;99.90
13794;DHT22;31160;49.500;7.772;2023-04-03T03:45:12;2.20;99.90
13794;DHT22;31160;49.500;7.772;2023-04-03T03:47:39;2.20;99.90
13794;DHT22;31160;49.500;7.772;2023-04-03T03:50:07;2.30;99.90
13794;DHT22;31160;49.500;7.772;2023-04-03T03:52:34;2.30;99.90
13794;DHT22;31160;49.500;7.772;2023-04-03T03:55:00;2.20;99.90
13794;DHT22;31160;49.500;7.772;2023-04-03T03:57:27;2.20;99.90
13794;DHT22;31160;49.500;7.772;2023-04-03T03:59:55;2.20;99.90
13794;DHT22;31160;49.500;7.772;2023-04-03T04:02:22;2.10;99.90
13794;DHT22;31160;49.500;7.772;2023-04-03T04:04:49;2.10;99.90
13794;DHT22;31160;49.500;7.772;2023-04-03T04:07:17;2.20;99.90
13794;DHT22;31160;49.500;7.772;2023-04-03T04:09:43;2.20;99.90
13794;DHT22;31160;49.500;7.772;2023-04-03T04:12:10;2.20;99.90
13794;DHT22;31160;49.500;7.772;2023-04-03T04:14:38;2.20;99.90
13794;DHT22;31160;49.500;7.772;2023-04-03T04:17:07;2.10;99.90
13794;DHT22;31160;49.500;7.772;2023-04-03T04:19:35;2.10;99.90
13794;DHT22;31160;49.500;7.772;2023-04-03T04:22:02;2.10;99.90
13794;DHT22;31160;49.500;7.772;2023-04-03T04:24:31;2.10;99.90
13794;DHT22;31160;49.500;7.772;2023-04-03T04:26:58;2.20;99.90
13794;DHT22;31160;49.500;7.772;2023-04-03T04:29:25;2.10;99.90
13794;DHT22;31160;49.500;7.772;2023-04-03T04:31:52;2.00;99.90
13794;DHT22;31160;49.500;7.772;2023-04-03T04:34:21;2.00;99.90
13794;DHT22;31160;49.500;7.772;2023-04-03T04:36:48;2.00;99.90
13794;DHT22;31160;49.500;7.772;2023-04-03T04:39:14;2.10;99.90
13794;DHT22;31160;49.500;7.772;2023-04-03T04:41:41;2.10;99.90
13794;DHT22;31160;49.500;7.772;2023-04-03T04:44:08;2.10;99.90
13794;DHT22;31160;49.500;7.772;2023-04-03T04:46:36;2.10;99.90
13794;DHT22;31160;49.500;7.772;2023-04-03T04:49:04;2.10;99.90
13794;DHT22;31160;49.500;7.772;2023-04-03T04:51:31;2.20;99.90
13794;DHT22;31160;49.500;7.772;2023-04-03T04:54:15;2.10;99.90
13794;DHT22;31160;49.500;7.772;2023-04-03T04:56:43;2.10;99.90
13794;DHT22;31160;49.500;7.772;2023-04-03T04:59:10;2.10;99.90
13794;DHT22;31160;49.500;7.772;2023-04-03T05:01:36;2.10;99.90
13794;DHT22;31160;49.500;7.772;2023-04-03T05:04:08;2.10;99.90
13794;DHT22;31160;49.500;7.772;2023-04-03T05:06:37;2.20;99.90
13794;DHT22;31160;49.500;7.772;2023-04-03T05:09:08;2.20;99.90
13794;DHT22;31160;49.500;7.772;2023-04-03T05:11:37;2.20;99.90
13794;DHT22;31160;49.500;7.772;2023-04-03T05:14:05;2.20;99.90
13794;DHT22;31160;49.500;7.772;2023-04-03T05:16:34;2.20;99.90
13794;DHT22;31160;49.500;7.772;2023-04-03T05:19:02;2.20;99.90
13794;DHT22;31160;49.500;7.772;2023-04-03T05:21:29;2.20;99.90
13794;DHT22;31160;49.500;7.772;2023-04-03T05:24:03;2.20;99.90
13794;DHT22;31160;49.500;7.772;2023-04-03T05:26:32;2.20;99.90
13794;DHT22;31160;49.500;7.772;2023-04-03T05:29:00;2.20;99.90
13794;DHT22;31160;49.500;7.772;2023-04-03T05:31:27;2.20;99.90
13794;DHT22;31160;49.500;7.772;2023-04-03T05:33:56;2.10;99.90
13794;DHT22;31160;49.500;7.772;2023-04-03T05:36:25;2.10;99.90
13794;DHT22;31160;49.500;7.772;2023-04-03T05:38:57;2.10;99.90
13794;DHT22;31160;49.500;7.772;2023-04-03T05:41:25;2.10;99.90
13794;DHT22;31160;49.500;7.772;2023-04-03T05:43:52;2.10;99.90
13794;DHT22;31160;49.500;7.772;2023-04-03T05:46:20;2.20;99.90
13794;DHT22;31160;49.500;7.772;2023-04-03T05:48:51;2.20;99.90
13794;DHT22;31160;49.500;7.772;2023-04-03T05:51:28;2.20;99.90
13794;DHT22;31160;49.500;7.772;2023-04-03T05:54:09;2.20;99.90
13794;DHT22;31160;49.500;7.772;2023-04-03T05:56:37;2.20;99.90
13794;DHT22;31160;49.500;7.772;2023-04-03T05:59:04;2.30;99.90
13794;DHT22;31160;49.500;7.772;2023-04-03T06:01:31;2.40;99.90
13794;DHT22;31160;49.500;7.772;2023-04-03T06:03:58;2.40;99.90
13794;DHT22;31160;49.500;7.772;2023-04-03T06:06:25;2.40;99.90
13794;DHT22;31160;49.500;7.772;2023-04-03T06:08:52;2.50;99.90
13794;DHT22;31160;49.500;7.772;2023-04-03T06:11:19;2.60;99.90
13794;DHT22;31160;49.500;7.772;2023-04-03T06:13:48;2.60;99.90
13794;DHT22;31160;49.500;7.772;2023-04-03T06:16:15;2.70;99.90
13794;DHT22;31160;49.500;7.772;2023-04-03T06:18:43;2.70;99.90
13794;DHT22;31160;49.500;7.772;2023-04-03T06:21:10;2.80;99.90
13794;DHT22;31160;49.500;7.772;2023-04-03T06:23:37;2.90;99.90
13794;DHT22;31160;49.500;7.772;2023-04-03T06:26:05;3.00;99.90
13794;DHT22;31160;49.500;7.772;2023-04-03T06:28:32;3.10;99.90
13794;DHT22;31160;49.500;7.772;2023-04-03T06:30:58;3.20;99.90
13794;DHT22;31160;49.500;7.772;2023-04-03T06:33:25;3.40;99.90
13794;DHT22;31160;49.500;7.772;2023-04-03T06:35:59;3.50;99.90
13794;DHT22;31160;49.500;7.772;2023-04-03T06:38:26;3.60;99.90
13794;DHT22;31160;49.500;7.772;2023-04-03T06:40:53;3.50;99.90
13794;DHT22;31160;49.500;7.772;2023-04-03T06:43:20;3.60;99.90
13794;DHT22;31160;49.500;7.772;2023-04-03T06:45:50;3.50;99.90
13794;DHT22;31160;49.500;7.772;2023-04-03T06:48:17;3.70;99.90
13794;DHT22;31160;49.500;7.772;2023-04-03T06:50:44;3.70;99.90
13794;DHT22;31160;49.500;7.772;2023-04-03T06:53:10;3.80;99.90
13794;DHT22;31160;49.500;7.772;2023-04-03T06:55:38;3.90;99.90
13794;DHT22;31160;49.500;7.772;2023-04-03T06:58:06;3.90;99.90
13794;DHT22;31160;49.500;7.772;2023-04-03T07:00:33;4.00;99.90
13794;DHT22;31160;49.500;7.772;2023-04-03T07:03:00;4.00;99.90
13794;DHT22;31160;49.500;7.772;2023-04-03T07:05:27;4.30;99.90
13794;DHT22;31160;49.500;7.772;2023-04-03T07:07:54;4.40;99.90
13794;DHT22;31160;49.500;7.772;2023-04-03T07:10:21;3.90;99.90
13794;DHT22;31160;49.500;7.772;2023-04-03T07:12:47;4.20;99.90
13794;DHT22;31160;49.500;7.772;2023-04-03T07:15:14;4.30;99.90
13794;DHT22;31160;49.500;7.772;2023-04-03T07:17:41;4.40;99.90
13794;DHT22;31160;49.500;7.772;2023-04-03T07:20:08;4.20;99.90
13794;DHT22;31160;49.500;7.772;2023-04-03T07:22:35;4.20;99.90
13794;DHT22;31160;49.500;7.772;2023-04-03T07:25:03;4.20;99.90
13794;DHT22;31160;49.500;7.772;2023-04-03T07:27:30;4.20;99.90
13794;DHT22;31160;49.500;7.772;2023-04-03T07:29:57;4.60;99.90
13794;DHT22;31160;49.500;7.772;2023-04-03T07:32:23;4.90;99.90
13794;DHT22;31160;49.500;7.772;2023-04-03T07:34:50;4.80;99.90
13794;DHT22;31160;49.500;7.772;2023-04-03T07:37:18;4.60;99.90
13794;DHT22;31160;49.500;7.772;2023-04-03T07:39:45;4.50;99.90
13794;DHT22;31160;49.500;7.772;2023-04-03T07:42:12;4.70;99.90
13794;DHT22;31160;49.500;7.772;2023-04-03T07:44:39;5.10;99.90
13794;DHT22;31160;49.500;7.772;2023-04-03T07:47:06;4.90;99.90
13794;DHT22;31160;49.500;7.772;2023-04-03T07:49:34;4.80;99.90
13794;DHT22;31160;49.500;7.772;2023-04-03T07:52:04;4.80;99.90
13794;DHT22;31160;49.500;7.772;2023-04-03T07:54:31;4.60;99.90
13794;DHT22;31160;49.500;7.772;2023-04-03T07:56:58;4.40;99.90
13794;DHT22;31160;49.500;7.772;2023-04-03T07:59:25;4.40;99.90
13794;DHT22;31160;49.500;7.772;2023-04-03T08:01:52;4.50;99.90
13794;DHT22;31160;49.500;7.772;2023-04-03T08:04:19;4.50;99.90
13794;DHT22;31160;49.500;7.772;2023-04-03T08:06:46;4.50;99.90
13794;DHT22;31160;49.500;7.772;2023-04-03T08:09:15;4.80;99.90
13794;DHT22;31160;49.500;7.772;2023-04-03T08:11:42;4.80;99.90
13794;DHT22;31160;49.500;7.772;2023-04-03T08:14:09;4.90;99.90
13794;DHT22;31160;49.500;7.772;2023-04-03T08:16:46;5.20;99.90
13794;DHT22;31160;49.500;7.772;2023-04-03T08:19:15;5.00;99.90
13794;DHT22;31160;49.500;7.772;2023-04-03T08:21:53;5.00;99.90
13794;DHT22;31160;49.500;7.772;2023-04-03T08:24:20;5.20;99.90
13794;DHT22;31160;49.500;7.772;2023-04-03T08:26:47;5.50;99.90
13794;DHT22;31160;49.500;7.772;2023-04-03T08:29:14;5.70;99.90
13794;DHT22;31160;49.500;7.772;2023-04-03T08:31:41;5.80;99.90
13794;DHT22;31160;49.500;7.772;2023-04-03T08:34:08;6.20;99.90
13794;DHT22;31160;49.500;7.772;2023-04-03T08:36:35;6.40;99.90
13794;DHT22;31160;49.500;7.772;2023-04-03T08:39:02;6.10;99.90
13794;DHT22;31160;49.500;7.772;2023-04-03T08:41:36;5.80;99.90
13794;DHT22;31160;49.500;7.772;2023-04-03T08:44:18;5.40;99.90
13794;DHT22;31160;49.500;7.772;2023-04-03T08:49:57;5.80;99.90
13794;DHT22;31160;49.500;7.772;2023-04-03T08:55:15;5.30;99.90
13794;DHT22;31160;49.500;7.772;2023-04-03T08:57:45;5.50;99.90
13794;DHT22;31160;49.500;7.772;2023-04-03T09:00:21;5.70;99.90
13794;DHT22;31160;49.500;7.772;2023-04-03T09:02:53;5.80;99.90
13794;DHT22;31160;49.500;7.772;2023-04-03T09:05:45;5.50;99.90
13794;DHT22;31160;49.500;7.772;2023-04-03T09:10:43;6.20;99.90
13794;DHT22;31160;49.500;7.772;2023-04-03T09:13:16;6.30;99.90
13794;DHT22;31160;49.500;7.772;2023-04-03T09:15:47;6.40;99.90
13794;DHT22;31160;49.500;7.772;2023-04-03T09:18:26;6.30;99.90
13794;DHT22;31160;49.500;7.772;2023-04-03T09:21:13;6.70;99.90
13794;DHT22;31160;49.500;7.772;2023-04-03T09:23:46;6.60;99.90
13794;DHT22;31160;49.500;7.772;2023-04-03T09:26:42;6.20;99.90
13794;DHT22;31160;49.500;7.772;2023-04-03T09:29:06;6.00;99.90
13794;DHT22;31160;49.500;7.772;2023-04-03T09:31:39;5.80;99.90
13794;DHT22;31160;49.500;7.772;2023-04-03T09:34:27;6.00;99.90
13794;DHT22;31160;49.500;7.772;2023-04-03T09:36:56;6.10;99.90
13794;DHT22;31160;49.500;7.772;2023-04-03T09:39:26;6.30;99.90
13794;DHT22;31160;49.500;7.772;2023-04-03T09:44:26;6.00;99.90
13794;DHT22;31160;49.500;7.772;2023-04-03T09:46:54;6.00;99.90
13794;DHT22;31160;49.500;7.772;2023-04-03T09:49:21;6.20;99.90
13794;DHT22;31160;49.500;7.772;2023-04-03T09:51:48;6.20;99.90
13794;DHT22;31160;49.500;7.772;2023-04-03T09:54:36;6.50;99.90
13794;DHT22;31160;49.500;7.772;2023-04-03T09:57:11;6.90;99.90
13794;DHT22;31160;49.500;7.772;2023-04-03T09:59:45;6.90;99.90
13794;DHT22;31160;49.500;7.772;2023-04-03T10:02:38;7.10;99.70
13794;DHT22;31160;49.500;7.772;2023-04-03T10:08:34;7.30;98.90
13794;DHT22;31160;49.500;7.772;2023-04-03T10:11:12;7.30;98.80
13794;DHT22;31160;49.500;7.772;2023-04-03T10:13:59;7.00;98.30
13794;DHT22;31160;49.500;7.772;2023-04-03T10:22:09;6.90;98.40
13794;DHT22;31160;49.500;7.772;2023-04-03T10:25:04;7.60;97.60
13794;DHT22;31160;49.500;7.772;2023-04-03T10:27:43;7.90;96.40
13794;DHT22;31160;49.500;7.772;2023-04-03T10:30:32;8.40;97.40
13794;DHT22;31160;49.500;7.772;2023-04-03T10:38:16;7.10;95.70
13794;DHT22;31160;49.500;7.772;2023-04-03T10:46:43;7.10;98.50
13794;DHT22;31160;49.500;7.772;2023-04-03T10:49:19;6.80;97.80
13794;DHT22;31160;49.500;7.772;2023-04-03T10:52:24;7.00;96.80
13794;DHT22;31160;49.500;7.772;2023-04-03T10:55:14;7.30;97.00
13794;DHT22;31160;49.500;7.772;2023-04-03T10:57:43;6.90;97.70
13794;DHT22;31160;49.500;7.772;2023-04-03T11:00:41;6.80;97.80
13794;DHT22;31160;49.500;7.772;2023-04-03T11:03:26;6.70;97.60
13794;DHT22;31160;49.500;7.772;2023-04-03T11:05:55;6.50;98.10
13794;DHT22;31160;49.500;7.772;2023-04-03T11:08:37;6.50;98.30
13794;DHT22;31160;49.500;7.772;2023-04-03T11:11:11;6.70;97.80
13794;DHT22;31160;49.500;7.772;2023-04-03T11:14:00;6.80;97.20
13794;DHT22;31160;49.500;7.772;2023-04-03T11:16:31;7.10;97.90
13794;DHT22;31160;49.500;7.772;2023-04-03T11:19:17;7.10;97.10
13794;DHT22;31160;49.500;7.772;2023-04-03T11:21:56;6.90;96.30
13794;DHT22;31160;49.500;7.772;2023-04-03T11:24:30;7.10;96.80
13794;DHT22;31160;49.500;7.772;2023-04-03T11:26:58;7.00;96.50
13794;DHT22;31160;49.500;7.772;2023-04-03T11:29:37;6.80;97.30
13794;DHT22;31160;49.500;7.772;2023-04-03T11:34:46;7.10;96.20
13794;DHT22;31160;49.500;7.772;2023-04-03T11:42:38;6.60;97.50
13794;DHT22;31160;49.500;7.772;2023-04-03T11:50:49;6.70;97.20
13794;DHT22;31160;49.500;7.772;2023-04-03T11:55:44;6.40;96.50
13794;DHT22;31160;49.500;7.772;2023-04-03T11:58:15;6.40;97.10
13794;DHT22;31160;49.500;7.772;2023-04-03T12:08:47;7.10;95.90
13794;DHT22;31160;49.500;7.772;2023-04-03T12:11:29;7.30;96.70
13794;DHT22;31160;49.500;7.772;2023-04-03T12:35:26;7.50;95.60
13794;DHT22;31160;49.500;7.772;2023-04-03T12:48:26;7.50;94.40
13794;DHT22;31160;49.500;7.772;2023-04-03T12:50:54;7.60;93.90
13794;DHT22;31160;49.500;7.772;2023-04-03T12:53:36;7.80;93.60
13794;DHT22;31160;49.500;7.772;2023-04-03T12:58:51;8.30;94.30
13794;DHT22;31160;49.500;7.772;2023-04-03T13:01:25;8.10;94.70
13794;DHT22;31160;49.500;7.772;2023-04-03T13:03:57;8.00;93.90
13794;DHT22;31160;49.500;7.772;2023-04-03T13:06:28;7.80;94.20
13794;DHT22;31160;49.500;7.772;2023-04-03T13:08:59;7.90;94.50
13794;DHT22;31160;49.500;7.772;2023-04-03T13:11:36;7.80;94.80
13794;DHT22;31160;49.500;7.772;2023-04-03T13:14:19;8.00;95.10
13794;DHT22;31160;49.500;7.772;2023-04-03T13:16:58;7.80;95.20
13794;DHT22;31160;49.500;7.772;2023-04-03T13:19:26;7.60;94.90
13794;DHT22;31160;49.500;7.772;2023-04-03T13:22:06;7.30;95.60
13794;DHT22;31160;49.500;7.772;2023-04-03T13:24:37;7.30;95.40
13794;DHT22;31160;49.500;7.772;2023-04-03T13:27:05;7.40;95.40
13794;DHT22;31160;49.500;7.772;2023-04-03T13:29:35;7.50;95.70
13794;DHT22;31160;49.500;7.772;2023-04-03T13:32:05;7.70;95.60
13794;DHT22;31160;49.500;7.772;2023-04-03T13:34:38;7.80;95.10
13794;DHT22;31160;49.500;7.772;2023-04-03T13:37:07;7.60;95.20
13794;DHT22;31160;49.500;7.772;2023-04-03T13:39:37;7.40;95.50
13794;DHT22;31160;49.500;7.772;2023-04-03T13:42:17;7.20;96.00
13794;DHT22;31160;49.500;7.772;2023-04-03T13:44:47;7.40;96.20
13794;DHT22;31160;49.500;7.772;2023-04-03T13:47:23;7.30;95.40
13794;DHT22;31160;49.500;7.772;2023-04-03T13:50:20;7.40;95.60
13794;DHT22;31160;49.500;7.772;2023-04-03T13:57:59;8.00;95.20
13794;DHT22;31160;49.500;7.772;2023-04-03T14:03:20;8.10;94.20
13794;DHT22;31160;49.500;7.772;2023-04-03T14:05:48;8.40;93.50
13794;DHT22;31160;49.500;7.772;2023-04-03T14:08:14;8.20;93.60
13794;DHT22;31160;49.500;7.772;2023-04-03T14:10:42;7.90;93.50
13794;DHT22;31160;49.500;7.772;2023-04-03T14:13:12;7.60;93.50
13794;DHT22;31160;49.500;7.772;2023-04-03T14:15:40;7.80;93.90
13794;DHT22;31160;49.500;7.772;2023-04-03T14:18:11;8.30;94.00
13794;DHT22;31160;49.500;7.772;2023-04-03T14:20:39;8.70;92.50
13794;DHT22;31160;49.500;7.772;2023-04-03T14:23:05;8.70;91.70
13794;DHT22;31160;49.500;7.772;2023-04-03T14:25:33;8.30;92.70
13794;DHT22;31160;49.500;7.772;2023-04-03T14:28:00;8.20;92.50
13794;DHT22;31160;49.500;7.772;2023-04-03T14:30:31;8.00;92.80
13794;DHT22;31160;49.500;7.772;2023-04-03T14:32:58;7.90;93.80
13794;DHT22;31160;49.500;7.772;2023-04-03T14:35:26;8.20;93.80
13794;DHT22;31160;49.500;7.772;2023-04-03T14:37:54;7.80;93.20
13794;DHT22;31160;49.500;7.772;2023-04-03T14:40:25;8.00;93.50
13794;DHT22;31160;49.500;7.772;2023-04-03T14:42:52;8.20;92.60
13794;DHT22;31160;49.500;7.772;2023-04-03T14:45:22;7.70;92.60
13794;DHT22;31160;49.500;7.772;2023-04-03T14:47:51;7.40;92.90
13794;DHT22;31160;49.500;7.772;2023-04-03T14:50:21;7.60;93.20
13794;DHT22;31160;49.500;7.772;2023-04-03T14:52:50;7.50;93.00
13794;DHT22;31160;49.500;7.772;2023-04-03T14:55:19;7.30;93.50
13794;DHT22;31160;49.500;7.772;2023-04-03T14:57:46;7.20;94.40
13794;DHT22;31160;49.500;7.772;2023-04-03T15:00:19;7.30;94.80
13794;DHT22;31160;49.500;7.772;2023-04-03T15:02:47;7.30;94.30
13794;DHT22;31160;49.500;7.772;2023-04-03T15:05:15;7.70;94.00
13794;DHT22;31160;49.500;7.772;2023-04-03T15:07:49;8.00;92.90
13794;DHT22;31160;49.500;7.772;2023-04-03T15:10:20;8.10;92.10
13794;DHT22;31160;49.500;7.772;2023-04-03T15:12:48;8.20;91.60
13794;DHT22;31160;49.500;7.772;2023-04-03T15:15:17;8.20;91.80
13794;DHT22;31160;49.500;7.772;2023-04-03T15:17:47;7.90;88.60
13794;DHT22;31160;49.500;7.772;2023-04-03T15:20:17;7.40;89.90
13794;DHT22;31160;49.500;7.772;2023-04-03T15:22:45;7.40;89.60
13794;DHT22;31160;49.500;7.772;2023-04-03T15:25:12;7.50;88.30
13794;DHT22;31160;49.500;7.772;2023-04-03T15:27:39;7.60;86.10
13794;DHT22;31160;49.500;7.772;2023-04-03T15:30:10;7.90;87.50
13794;DHT22;31160;49.500;7.772;2023-04-03T15:32:37;7.90;85.40
13794;DHT22;31160;49.500;7.772;2023-04-03T15:35:05;7.90;85.60
13794;DHT22;31160;49.500;7.772;2023-04-03T15:37:32;7.80;85.80
13794;DHT22;31160;49.500;7.772;2023-04-03T15:39:58;7.80;84.90
13794;DHT22;31160;49.500;7.772;2023-04-03T15:42:25;7.50;85.40
13794;DHT22;31160;49.500;7.772;2023-04-03T15:44:52;7.40;87.30
13794;DHT22;31160;49.500;7.772;2023-04-03T15:47:19;7.50;88.00
13794;DHT22;31160;49.500;7.772;2023-04-03T15:49:45;7.50;88.80
13794;DHT22;31160;49.500;7.772;2023-04-03T15:52:12;7.70;88.80
13794;DHT22;31160;49.500;7.772;2023-04-03T15:54:39;7.50;85.60
13794;DHT22;31160;49.500;7.772;2023-04-03T15:57:06;7.50;88.90
13794;DHT22;31160;49.500;7.772;2023-04-03T15:59:33;7.70;85.80
13794;DHT22;31160;49.500;7.772;2023-04-03T16:02:00;7.50;86.10
13794;DHT22;31160;49.500;7.772;2023-04-03T16:04:28;7.50;86.00
13794;DHT22;31160;49.500;7.772;2023-04-03T16:06:54;7.30;87.40
13794;DHT22;31160;49.500;7.772;2023-04-03T16:09:21;7.30;87.20
13794;DHT22;31160;49.500;7.772;2023-04-03T16:11:48;7.40;88.40
13794;DHT22;31160;49.500;7.772;2023-04-03T16:14:15;7.40;87.30
13794;DHT22;31160;49.500;7.772;2023-04-03T16:16:42;7.50;87.60
13794;DHT22;31160;49.500;7.772;2023-04-03T16:19:09;7.40;88.80
13794;DHT22;31160;49.500;7.772;2023-04-03T16:21:36;7.40;89.70
13794;DHT22;31160;49.500;7.772;2023-04-03T16:24:03;7.40;89.30
13794;DHT22;31160;49.500;7.772;2023-04-03T16:26:31;7.40;89.90
13794;DHT22;31160;49.500;7.772;2023-04-03T16:28:57;7.30;90.00
13794;DHT22;31160;49.500;7.772;2023-04-03T16:31:25;7.10;90.30
13794;DHT22;31160;49.500;7.772;2023-04-03T16:33:52;7.10;90.80
13794;DHT22;31160;49.500;7.772;2023-04-03T16:36:19;7.10;90.60
13794;DHT22;31160;49.500;7.772;2023-04-03T16:38:46;7.10;91.10
13794;DHT22;31160;49.500;7.772;2023-04-03T16:41:12;7.00;90.90
13794;DHT22;31160;49.500;7.772;2023-04-03T16:43:39;6.90;90.80
13794;DHT22;31160;49.500;7.772;2023-04-03T16:46:11;6.90;91.30
13794;DHT22;31160;49.500;7.772;2023-04-03T16:48:38;6.80;91.50
13794;DHT22;31160;49.500;7.772;2023-04-03T16:51:04;6.80;91.50
13794;DHT22;31160;49.500;7.772;2023-04-03T16:53:31;6.80;91.80
13794;DHT22;31160;49.500;7.772;2023-04-03T16:55:58;6.70;91.80
13794;DHT22;31160;49.500;7.772;2023-04-03T16:58:25;6.60;91.50
13794;DHT22;31160;49.500;7.772;2023-04-03T17:00:52;6.60;92.20
13794;DHT22;31160;49.500;7.772;2023-04-03T17:03:20;6.60;91.90
13794;DHT22;31160;49.500;7.772;2023-04-03T17:05:47;6.50;91.80
13794;DHT22;31160;49.500;7.772;2023-04-03T17:08:16;6.60;91.60
13794;DHT22;31160;49.500;7.772;2023-04-03T17:10:43;6.50;91.40
13794;DHT22;31160;49.500;7.772;2023-04-03T17:13:10;6.40;91.80
13794;DHT22;31160;49.500;7.772;2023-04-03T17:15:37;6.40;91.90
13794;DHT22;31160;49.500;7.772;2023-04-03T17:18:04;6.40;92.50
13794;DHT22;31160;49.500;7.772;2023-04-03T17:20:31;6.50;92.10
13794;DHT22;31160;49.500;7.772;2023-04-03T17:23:00;6.40;91.80
13794;DHT22;31160;49.500;7.772;2023-04-03T17:25:27;6.40;92.50
13794;DHT22;31160;49.500;7.772;2023-04-03T17:27:53;6.30;92.50
13794;DHT22;31160;49.500;7.772;2023-04-03T17:30:20;6.30;92.50
13794;DHT22;31160;49.500;7.772;2023-04-03T17:32:47;6.40;92.50
13794;DHT22;31160;49.500;7.772;2023-04-03T17:35:14;6.30;92.40
13794;DHT22;31160;49.500;7.772;2023-04-03T17:37:40;6.20;92.40
13794;DHT22;31160;49.500;7.772;2023-04-03T17:40:07;6.10;92.60
13794;DHT22;31160;49.500;7.772;2023-04-03T17:42:34;6.10;93.00
13794;DHT22;31160;49.500;7.772;2023-04-03T17:45:01;6.00;92.90
13794;DHT22;31160;49.500;7.772;2023-04-03T17:47:28;6.00;93.10